sensor_id;sensor_type;location;lat;lon;timestamp;P1;durP1;ratioP1;P2;durP2;ratioP2
37365;SDS011;23239;51.504;7.456;2024-03-02T00:00:00;3.4;;;2.5;;
37365;SDS011;23239;51.504;7.456;2024-03-02T00:01:00;3.4;;;2.5;;
37365;SDS011;23239;51.504;7.456;2024-03-02T00:02:00;3.8;;;2.6;;
37365;SDS011;23239;51.504;7.456;2024-03-02T00:03:00;3.8;;;2.6;;
37365;SDS011;23239;51.504;7.456;2024-03-02T00:04:00;3.8;;;2.6;;
37365;SDS011;23239;51.504;7.456;2024-03-02T00:05:00;3.8;;;2.6;;
37365;SDS011;23239;51.504;7.456;2024-03-02T00:06:00;3.8;;;2.6;;
37365;SDS011;23239;51.504;7.456;2024-03-02T00:07:00;5.8;;;3.3;;
37365;SDS011;23239;51.504;7.456;2024-03-02T00:08:00;5.8;;;3.3;;
37365;SDS011;23239;51.504;7.456;2024-03-02T00:09:00;5.8;;;3.3;;
37365;SDS011;23239;51.504;7.456;2024-03-02T00:10:00;5.8;;;3.3;;
37365;SDS011;23239;51.504;7.456;2024-03-02T00:11:00;5.8;;;3.3;;
37365;SDS011;23239;51.504;7.456;2024-03-02T00:12:00;6.0;;;4.1;;
37365;SDS011;23239;51.504;7.456;2024-03-02T00:13:00;6.0;;;4.1;;
37365;SDS011;23239;51.504;7.456;2024-03-02T00:14:00;6.0;;;4.1;;
37365;SDS011;23239;51.504;7.456;2024-03-02T00:15:00;6.0;;;4.1;;
37365;SDS011;23239;51.504;7.456;2024-03-02T00:16:00;6.0;;;4.1;;
37365;SDS011;23239;51.504;7.456;2024-03-02T00:17:00;6.5;;;4.8;;
37365;SDS011;23239;51.504;7.456;2024-03-02T00:18:00;6.5;;;4.8;;
37365;SDS011;23239;51.504;7.456;2024-03-02T00:19:01;6.5;;;4.8;;
37365;SDS011;23239;51.504;7.456;2024-03-02T00:20:00;6.5;;;4.8;;
37365;SDS011;23239;51.504;7.456;2024-03-02T00:21:00;6.5;;;4.8;;
37365;SDS011;23239;51.504;7.456;2024-03-02T00:22:00;6.4;;;4.4;;
37365;SDS011;23239;51.504;7.456;2024-03-02T00:23:02;6.4;;;4.4;;
37365;SDS011;23239;51.504;7.456;2024-03-02T00:24:00;6.4;;;4.4;;
37365;SDS011;23239;51.504;7.456;2024-03-02T00:25:00;6.4;;;4.4;;
37365;SDS011;23239;51.504;7.456;2024-03-02T00:26:00;6.4;;;4.4;;
37365;SDS011;23239;51.504;7.456;2024-03-02T00:27:00;6.4;;;4.0;;
37365;SDS011;23239;51.504;7.456;2024-03-02T00:28:00;6.4;;;4.0;;
37365;SDS011;23239;51.504;7.456;2024-03-02T00:29:00;6.4;;;4.0;;
37365;SDS011;23239;51.504;7.456;2024-03-02T00:30:00;6.4;;;4.0;;
37365;SDS011;23239;51.504;7.456;2024-03-02T00:31:02;6.4;;;4.0;;
37365;SDS011;23239;51.504;7.456;2024-03-02T00:32:00;4.7;;;3.2;;
37365;SDS011;23239;51.504;7.456;2024-03-02T00:33:00;4.7;;;3.2;;
37365;SDS011;23239;51.504;7.456;2024-03-02T00:34:00;4.7;;;3.2;;
37365;SDS011;23239;51.504;7.456;2024-03-02T00:35:00;4.7;;;3.2;;
37365;SDS011;23239;51.504;7.456;2024-03-02T00:36:01;4.7;;;3.2;;
37365;SDS011;23239;51.504;7.456;2024-03-02T00:37:00;4.8;;;3.2;;
37365;SDS011;23239;51.504;7.456;2024-03-02T00:38:03;4.8;;;3.2;;
37365;SDS011;23239;51.504;7.456;2024-03-02T00:39:00;4.8;;;3.2;;
37365;SDS011;23239;51.504;7.456;2024-03-02T00:40:00;4.8;;;3.2;;
37365;SDS011;23239;51.504;7.456;2024-03-02T00:41:02;4.8;;;3.2;;
37365;SDS011;23239;51.504;7.456;2024-03-02T00:42:00;6.0;;;2.5;;
37365;SDS011;23239;51.504;7.456;2024-03-02T00:43:00;6.0;;;2.5;;
37365;SDS011;23239;51.504;7.456;2024-03-02T00:44:00;6.0;;;2.5;;
37365;SDS011;23239;51.504;7.456;2024-03-02T00:45:00;6.0;;;2.5;;
37365;SDS011;23239;51.504;7.456;2024-03-02T00:46:00;6.0;;;2.5;;
37365;SDS011;23239;51.504;7.456;2024-03-02T00:47:00;5.2;;;2.6;;
37365;SDS011;23239;51.504;7.456;2024-03-02T00:48:00;5.2;;;2.6;;
37365;SDS011;23239;51.504;7.456;2024-03-02T00:49:00;5.2;;;2.6;;
37365;SDS011;23239;51.504;7.456;2024-03-02T00:50:00;5.2;;;2.6;;
37365;SDS011;23239;51.504;7.456;2024-03-02T00:51:00;5.2;;;2.6;;
37365;SDS011;23239;51.504;7.456;2024-03-02T00:52:00;5.3;;;3.3;;
37365;SDS011;23239;51.504;7.456;2024-03-02T00:53:01;5.3;;;3.3;;
37365;SDS011;23239;51.504;7.456;2024-03-02T00:54:05;5.3;;;3.3;;
37365;SDS011;23239;51.504;7.456;2024-03-02T00:55:00;5.3;;;3.3;;
37365;SDS011;23239;51.504;7.456;2024-03-02T00:56:00;5.3;;;3.3;;
37365;SDS011;23239;51.504;7.456;2024-03-02T00:57:00;4.8;;;3.0;;
37365;SDS011;23239;51.504;7.456;2024-03-02T00:58:00;4.8;;;3.0;;
37365;SDS011;23239;51.504;7.456;2024-03-02T00:59:00;4.8;;;3.0;;
37365;SDS011;23239;51.504;7.456;2024-03-02T01:00:00;4.8;;;3.0;;
37365;SDS011;23239;51.504;7.456;2024-03-02T01:01:00;4.8;;;3.0;;
37365;SDS011;23239;51.504;7.456;2024-03-02T01:02:00;5.0;;;3.1;;
37365;SDS011;23239;51.504;7.456;2024-03-02T01:03:00;5.0;;;3.1;;
37365;SDS011;23239;51.504;7.456;2024-03-02T01:04:00;5.0;;;3.1;;
37365;SDS011;23239;51.504;7.456;2024-03-02T01:05:00;5.0;;;3.1;;
37365;SDS011;23239;51.504;7.456;2024-03-02T01:06:00;5.0;;;3.1;;
37365;SDS011;23239;51.504;7.456;2024-03-02T01:07:00;5.1;;;3.0;;
37365;SDS011;23239;51.504;7.456;2024-03-02T01:08:00;5.1;;;3.0;;
37365;SDS011;23239;51.504;7.456;2024-03-02T01:09:00;5.1;;;3.0;;
37365;SDS011;23239;51.504;7.456;2024-03-02T01:10:00;5.1;;;3.0;;
37365;SDS011;23239;51.504;7.456;2024-03-02T01:11:00;5.1;;;3.0;;
37365;SDS011;23239;51.504;7.456;2024-03-02T01:12:00;4.6;;;2.6;;
37365;SDS011;23239;51.504;7.456;2024-03-02T01:13:00;4.6;;;2.6;;
37365;SDS011;23239;51.504;7.456;2024-03-02T01:14:00;4.6;;;2.6;;
37365;SDS011;23239;51.504;7.456;2024-03-02T01:15:00;4.6;;;2.6;;
37365;SDS011;23239;51.504;7.456;2024-03-02T01:16:00;4.6;;;2.6;;
37365;SDS011;23239;51.504;7.456;2024-03-02T01:17:00;5.2;;;2.7;;
37365;SDS011;23239;51.504;7.456;2024-03-02T01:18:00;5.2;;;2.7;;
37365;SDS011;23239;51.504;7.456;2024-03-02T01:19:00;5.2;;;2.7;;
37365;SDS011;23239;51.504;7.456;2024-03-02T01:20:00;5.2;;;2.7;;
37365;SDS011;23239;51.504;7.456;2024-03-02T01:21:00;5.2;;;2.7;;
37365;SDS011;23239;51.504;7.456;2024-03-02T01:22:00;5.4;;;2.8;;
37365;SDS011;23239;51.504;7.456;2024-03-02T01:23:00;5.4;;;2.8;;
37365;SDS011;23239;51.504;7.456;2024-03-02T01:24:00;5.4;;;2.8;;
37365;SDS011;23239;51.504;7.456;2024-03-02T01:25:00;5.4;;;2.8;;
37365;SDS011;23239;51.504;7.456;2024-03-02T01:26:00;5.4;;;2.8;;
37365;SDS011;23239;51.504;7.456;2024-03-02T01:27:00;4.8;;;2.5;;
37365;SDS011;23239;51.504;7.456;2024-03-02T01:28:00;4.8;;;2.5;;
37365;SDS011;23239;51.504;7.456;2024-03-02T01:29:00;4.8;;;2.5;;
37365;SDS011;23239;51.504;7.456;2024-03-02T01:30:00;4.8;;;2.5;;
37365;SDS011;23239;51.504;7.456;2024-03-02T01:31:00;4.8;;;2.5;;
37365;SDS011;23239;51.504;7.456;2024-03-02T01:32:00;5.2;;;2.6;;
37365;SDS011;23239;51.504;7.456;2024-03-02T01:33:00;5.2;;;2.6;;
37365;SDS011;23239;51.504;7.456;2024-03-02T01:34:00;5.2;;;2.6;;
37365;SDS011;23239;51.504;7.456;2024-03-02T01:35:00;5.2;;;2.6;;
37365;SDS011;23239;51.504;7.456;2024-03-02T01:36:00;5.2;;;2.6;;
37365;SDS011;23239;51.504;7.456;2024-03-02T01:37:00;5.8;;;2.8;;
37365;SDS011;23239;51.504;7.456;2024-03-02T01:38:00;5.8;;;2.8;;
37365;SDS011;23239;51.504;7.456;2024-03-02T01:39:00;5.8;;;2.8;;
37365;SDS011;23239;51.504;7.456;2024-03-02T01:40:00;5.8;;;2.8;;
37365;SDS011;23239;51.504;7.456;2024-03-02T01:41:00;5.8;;;2.8;;
37365;SDS011;23239;51.504;7.456;2024-03-02T01:42:00;4.6;;;2.4;;
37365;SDS011;23239;51.504;7.456;2024-03-02T01:43:00;4.6;;;2.4;;
37365;SDS011;23239;51.504;7.456;2024-03-02T01:44:00;4.6;;;2.4;;
37365;SDS011;23239;51.504;7.456;2024-03-02T01:45:00;4.6;;;2.4;;
37365;SDS011;23239;51.504;7.456;2024-03-02T01:46:00;4.6;;;2.4;;
37365;SDS011;23239;51.504;7.456;2024-03-02T01:47:00;5.7;;;2.3;;
37365;SDS011;23239;51.504;7.456;2024-03-02T01:48:00;5.7;;;2.3;;
37365;SDS011;23239;51.504;7.456;2024-03-02T01:49:00;5.7;;;2.3;;
37365;SDS011;23239;51.504;7.456;2024-03-02T01:50:00;5.7;;;2.3;;
37365;SDS011;23239;51.504;7.456;2024-03-02T01:51:00;5.7;;;2.3;;
37365;SDS011;23239;51.504;7.456;2024-03-02T01:52:00;3.5;;;1.9;;
37365;SDS011;23239;51.504;7.456;2024-03-02T01:53:00;3.5;;;1.9;;
37365;SDS011;23239;51.504;7.456;2024-03-02T01:54:00;3.5;;;1.9;;
37365;SDS011;23239;51.504;7.456;2024-03-02T01:55:00;3.5;;;1.9;;
37365;SDS011;23239;51.504;7.456;2024-03-02T01:56:00;3.5;;;1.9;;
37365;SDS011;23239;51.504;7.456;2024-03-02T01:57:00;3.0;;;1.8;;
37365;SDS011;23239;51.504;7.456;2024-03-02T01:58:00;3.0;;;1.8;;
37365;SDS011;23239;51.504;7.456;2024-03-02T01:59:00;3.0;;;1.8;;
37365;SDS011;23239;51.504;7.456;2024-03-02T02:00:00;3.0;;;1.8;;
37365;SDS011;23239;51.504;7.456;2024-03-02T02:01:00;3.0;;;1.8;;
37365;SDS011;23239;51.504;7.456;2024-03-02T02:02:00;3.7;;;1.9;;
37365;SDS011;23239;51.504;7.456;2024-03-02T19:36:00;1.9;;;1.4;;
37365;SDS011;23239;51.504;7.456;2024-03-02T19:37:00;1.9;;;1.4;;
37365;SDS011;23239;51.504;7.456;2024-03-02T19:38:00;2.5;;;2.0;;
37365;SDS011;23239;51.504;7.456;2024-03-02T19:39:00;2.5;;;2.0;;
37365;SDS011;23239;51.504;7.456;2024-03-02T19:40:00;2.5;;;2.0;;
37365;SDS011;23239;51.504;7.456;2024-03-02T19:41:00;2.5;;;2.0;;
37365;SDS011;23239;51.504;7.456;2024-03-02T19:42:00;2.5;;;2.0;;
37365;SDS011;23239;51.504;7.456;2024-03-02T19:43:00;3.6;;;2.1;;
37365;SDS011;23239;51.504;7.456;2024-03-02T19:44:00;3.6;;;2.1;;
37365;SDS011;23239;51.504;7.456;2024-03-02T19:45:00;3.6;;;2.1;;
37365;SDS011;23239;51.504;7.456;2024-03-02T19:46:00;3.6;;;2.1;;
37365;SDS011;23239;51.504;7.456;2024-03-02T19:47:00;3.6;;;2.1;;
37365;SDS011;23239;51.504;7.456;2024-03-02T19:48:00;3.0;;;1.8;;
37365;SDS011;23239;51.504;7.456;2024-03-02T19:49:00;3.0;;;1.8;;
37365;SDS011;23239;51.504;7.456;2024-03-02T19:50:00;3.0;;;1.8;;
37365;SDS011;23239;51.504;7.456;2024-03-02T19:51:00;3.0;;;1.8;;
37365;SDS011;23239;51.504;7.456;2024-03-02T19:52:00;3.0;;;1.8;;
37365;SDS011;23239;51.504;7.456;2024-03-02T19:53:00;2.6;;;1.6;;
37365;SDS011;23239;51.504;7.456;2024-03-02T19:54:00;2.6;;;1.6;;
37365;SDS011;23239;51.504;7.456;2024-03-02T19:55:00;2.6;;;1.6;;
37365;SDS011;23239;51.504;7.456;2024-03-02T19:56:00;2.6;;;1.6;;
37365;SDS011;23239;51.504;7.456;2024-03-02T19:57:00;2.6;;;1.6;;
37365;SDS011;23239;51.504;7.456;2024-03-02T19:58:00;3.5;;;1.9;;
37365;SDS011;23239;51.504;7.456;2024-03-02T19:59:00;3.5;;;1.9;;
37365;SDS011;23239;51.504;7.456;2024-03-02T20:00:00;3.5;;;1.9;;
37365;SDS011;23239;51.504;7.456;2024-03-02T20:01:00;3.5;;;1.9;;
37365;SDS011;23239;51.504;7.456;2024-03-02T20:02:00;3.5;;;1.9;;
37365;SDS011;23239;51.504;7.456;2024-03-02T20:03:00;5.5;;;3.6;;
37365;SDS011;23239;51.504;7.456;2024-03-02T20:04:01;5.5;;;3.6;;
37365;SDS011;23239;51.504;7.456;2024-03-02T20:05:00;5.5;;;3.6;;
37365;SDS011;23239;51.504;7.456;2024-03-02T20:06:00;5.5;;;3.6;;
37365;SDS011;23239;51.504;7.456;2024-03-02T20:07:00;5.5;;;3.6;;
37365;SDS011;23239;51.504;7.456;2024-03-02T20:08:00;5.2;;;2.8;;
37365;SDS011;23239;51.504;7.456;2024-03-02T20:09:00;5.2;;;2.8;;
37365;SDS011;23239;51.504;7.456;2024-03-02T20:10:00;5.2;;;2.8;;
37365;SDS011;23239;51.504;7.456;2024-03-02T20:11:01;5.2;;;2.8;;
37365;SDS011;23239;51.504;7.456;2024-03-02T20:12:00;5.2;;;2.8;;
37365;SDS011;23239;51.504;7.456;2024-03-02T20:13:00;4.9;;;3.2;;
37365;SDS011;23239;51.504;7.456;2024-03-02T20:14:00;4.9;;;3.2;;
37365;SDS011;23239;51.504;7.456;2024-03-02T20:15:01;4.9;;;3.2;;
37365;SDS011;23239;51.504;7.456;2024-03-02T20:16:00;4.9;;;3.2;;
37365;SDS011;23239;51.504;7.456;2024-03-02T20:17:00;4.9;;;3.2;;
37365;SDS011;23239;51.504;7.456;2024-03-02T20:18:00;3.2;;;2.4;;
37365;SDS011;23239;51.504;7.456;2024-03-02T20:19:00;3.2;;;2.4;;
37365;SDS011;23239;51.504;7.456;2024-03-02T20:20:00;3.2;;;2.4;;
37365;SDS011;23239;51.504;7.456;2024-03-02T20:21:00;3.2;;;2.4;;
37365;SDS011;23239;51.504;7.456;2024-03-02T20:22:00;3.2;;;2.4;;
37365;SDS011;23239;51.504;7.456;2024-03-02T20:23:00;3.3;;;2.4;;
37365;SDS011;23239;51.504;7.456;2024-03-02T20:24:00;3.3;;;2.4;;
37365;SDS011;23239;51.504;7.456;2024-03-02T20:25:00;3.3;;;2.4;;
37365;SDS011;23239;51.504;7.456;2024-03-02T20:26:00;3.3;;;2.4;;
37365;SDS011;23239;51.504;7.456;2024-03-02T20:27:00;3.3;;;2.4;;
37365;SDS011;23239;51.504;7.456;2024-03-02T20:28:00;3.6;;;2.4;;
37365;SDS011;23239;51.504;7.456;2024-03-02T20:29:00;3.6;;;2.4;;
37365;SDS011;23239;51.504;7.456;2024-03-02T20:30:00;3.6;;;2.4;;
37365;SDS011;23239;51.504;7.456;2024-03-02T20:31:00;3.6;;;2.4;;
37365;SDS011;23239;51.504;7.456;2024-03-02T20:32:00;3.6;;;2.4;;
37365;SDS011;23239;51.504;7.456;2024-03-02T20:33:00;3.9;;;2.7;;
37365;SDS011;23239;51.504;7.456;2024-03-02T20:34:00;3.9;;;2.7;;
37365;SDS011;23239;51.504;7.456;2024-03-02T20:35:00;3.9;;;2.7;;
37365;SDS011;23239;51.504;7.456;2024-03-02T20:36:00;3.9;;;2.7;;
37365;SDS011;23239;51.504;7.456;2024-03-02T20:37:00;3.9;;;2.7;;
37365;SDS011;23239;51.504;7.456;2024-03-02T20:38:00;6.8;;;4.4;;
37365;SDS011;23239;51.504;7.456;2024-03-02T20:39:00;6.8;;;4.4;;
37365;SDS011;23239;51.504;7.456;2024-03-02T20:40:00;6.8;;;4.4;;
37365;SDS011;23239;51.504;7.456;2024-03-02T20:41:00;6.8;;;4.4;;
37365;SDS011;23239;51.504;7.456;2024-03-02T20:42:00;6.8;;;4.4;;
37365;SDS011;23239;51.504;7.456;2024-03-02T20:43:00;7.0;;;4.1;;
37365;SDS011;23239;51.504;7.456;2024-03-02T20:44:00;7.0;;;4.1;;
37365;SDS011;23239;51.504;7.456;2024-03-02T20:45:00;7.0;;;4.1;;
37365;SDS011;23239;51.504;7.456;2024-03-02T20:46:00;7.0;;;4.1;;
37365;SDS011;23239;51.504;7.456;2024-03-02T20:47:00;7.0;;;4.1;;
37365;SDS011;23239;51.504;7.456;2024-03-02T20:48:00;38.1;;;22.3;;
37365;SDS011;23239;51.504;7.456;2024-03-02T20:49:00;38.1;;;22.3;;
37365;SDS011;23239;51.504;7.456;2024-03-02T20:50:00;38.1;;;22.3;;
37365;SDS011;23239;51.504;7.456;2024-03-02T20:51:00;38.1;;;22.3;;
37365;SDS011;23239;51.504;7.456;2024-03-02T20:52:00;38.1;;;22.3;;
37365;SDS011;23239;51.504;7.456;2024-03-02T20:53:00;6.5;;;3.8;;
37365;SDS011;23239;51.504;7.456;2024-03-02T20:54:00;6.5;;;3.8;;
37365;SDS011;23239;51.504;7.456;2024-03-02T20:55:00;6.5;;;3.8;;
37365;SDS011;23239;51.504;7.456;2024-03-02T20:56:00;6.5;;;3.8;;
37365;SDS011;23239;51.504;7.456;2024-03-02T20:57:00;6.5;;;3.8;;
37365;SDS011;23239;51.504;7.456;2024-03-02T20:58:00;3.7;;;2.8;;
37365;SDS011;23239;51.504;7.456;2024-03-02T20:59:00;3.7;;;2.8;;
37365;SDS011;23239;51.504;7.456;2024-03-02T21:00:00;3.7;;;2.8;;
37365;SDS011;23239;51.504;7.456;2024-03-02T21:01:00;3.7;;;2.8;;
37365;SDS011;23239;51.504;7.456;2024-03-02T21:02:00;3.7;;;2.8;;
37365;SDS011;23239;51.504;7.456;2024-03-02T21:03:00;4.0;;;2.9;;
37365;SDS011;23239;51.504;7.456;2024-03-02T21:04:00;4.0;;;2.9;;
37365;SDS011;23239;51.504;7.456;2024-03-02T21:05:00;4.0;;;2.9;;
37365;SDS011;23239;51.504;7.456;2024-03-02T21:06:00;4.0;;;2.9;;
37365;SDS011;23239;51.504;7.456;2024-03-02T21:07:00;4.0;;;2.9;;
37365;SDS011;23239;51.504;7.456;2024-03-02T21:08:00;4.4;;;3.1;;
37365;SDS011;23239;51.504;7.456;2024-03-02T21:09:00;4.4;;;3.1;;
37365;SDS011;23239;51.504;7.456;2024-03-02T21:10:00;4.4;;;3.1;;
37365;SDS011;23239;51.504;7.456;2024-03-02T21:11:00;4.4;;;3.1;;
37365;SDS011;23239;51.504;7.456;2024-03-02T21:12:00;4.4;;;3.1;;
37365;SDS011;23239;51.504;7.456;2024-03-02T21:13:00;5.2;;;3.2;;
37365;SDS011;23239;51.504;7.456;2024-03-02T21:14:00;5.2;;;3.2;;
37365;SDS011;23239;51.504;7.456;2024-03-02T21:15:00;5.2;;;3.2;;
37365;SDS011;23239;51.504;7.456;2024-03-02T21:16:00;5.2;;;3.2;;
37365;SDS011;23239;51.504;7.456;2024-03-02T21:17:00;5.2;;;3.2;;
37365;SDS011;23239;51.504;7.456;2024-03-02T21:18:00;5.4;;;3.5;;
37365;SDS011;23239;51.504;7.456;2024-03-02T21:19:00;5.4;;;3.5;;
37365;SDS011;23239;51.504;7.456;2024-03-02T21:20:00;5.4;;;3.5;;
37365;SDS011;23239;51.504;7.456;2024-03-02T21:21:00;5.4;;;3.5;;
37365;SDS011;23239;51.504;7.456;2024-03-02T21:22:00;5.4;;;3.5;;
37365;SDS011;23239;51.504;7.456;2024-03-02T21:23:00;22.1;;;12.4;;
37365;SDS011;23239;51.504;7.456;2024-03-02T21:24:00;22.1;;;12.4;;
37365;SDS011;23239;51.504;7.456;2024-03-02T21:25:00;22.1;;;12.4;;
37365;SDS011;23239;51.504;7.456;2024-03-02T21:26:00;22.1;;;12.4;;
37365;SDS011;23239;51.504;7.456;2024-03-02T21:27:00;22.1;;;12.4;;
37365;SDS011;23239;51.504;7.456;2024-03-02T21:28:00;8.7;;;5.9;;
37365;SDS011;23239;51.504;7.456;2024-03-02T21:29:00;8.7;;;5.9;;
37365;SDS011;23239;51.504;7.456;2024-03-02T21:30:00;8.7;;;5.9;;
37365;SDS011;23239;51.504;7.456;2024-03-02T21:31:00;8.7;;;5.9;;
37365;SDS011;23239;51.504;7.456;2024-03-02T21:32:00;8.7;;;5.9;;
37365;SDS011;23239;51.504;7.456;2024-03-02T21:33:00;5.6;;;3.9;;
37365;SDS011;23239;51.504;7.456;2024-03-02T21:34:00;5.6;;;3.9;;
37365;SDS011;23239;51.504;7.456;2024-03-02T21:35:00;5.6;;;3.9;;
37365;SDS011;23239;51.504;7.456;2024-03-02T21:36:00;5.6;;;3.9;;
37365;SDS011;23239;51.504;7.456;2024-03-02T21:37:00;5.6;;;3.9;;
37365;SDS011;23239;51.504;7.456;2024-03-02T21:38:00;6.8;;;4.6;;
37365;SDS011;23239;51.504;7.456;2024-03-02T21:39:00;6.8;;;4.6;;
37365;SDS011;23239;51.504;7.456;2024-03-02T21:40:00;6.8;;;4.6;;
37365;SDS011;23239;51.504;7.456;2024-03-02T21:43:00;4.5;;;2.9;;
37365;SDS011;23239;51.504;7.456;2024-03-02T21:44:00;4.5;;;2.9;;
37365;SDS011;23239;51.504;7.456;2024-03-02T21:45:00;4.5;;;2.9;;
37365;SDS011;23239;51.504;7.456;2024-03-02T21:46:00;4.5;;;2.9;;
37365;SDS011;23239;51.504;7.456;2024-03-02T21:47:00;4.5;;;2.9;;
37365;SDS011;23239;51.504;7.456;2024-03-02T21:48:00;6.0;;;3.1;;
37365;SDS011;23239;51.504;7.456;2024-03-02T21:49:00;6.0;;;3.1;;
37365;SDS011;23239;51.504;7.456;2024-03-02T21:50:00;6.0;;;3.1;;
37365;SDS011;23239;51.504;7.456;2024-03-02T21:51:00;6.0;;;3.1;;
37365;SDS011;23239;51.504;7.456;2024-03-02T21:52:00;6.0;;;3.1;;
37365;SDS011;23239;51.504;7.456;2024-03-02T21:53:00;4.6;;;3.2;;
37365;SDS011;23239;51.504;7.456;2024-03-02T21:54:00;4.6;;;3.2;;
37365;SDS011;23239;51.504;7.456;2024-03-02T21:55:00;4.6;;;3.2;;
37365;SDS011;23239;51.504;7.456;2024-03-02T21:56:00;4.6;;;3.2;;
37365;SDS011;23239;51.504;7.456;2024-03-02T21:57:00;4.6;;;3.2;;
37365;SDS011;23239;51.504;7.456;2024-03-02T21:58:00;6.8;;;4.1;;
37365;SDS011;23239;51.504;7.456;2024-03-02T21:59:00;6.8;;;4.1;;
37365;SDS011;23239;51.504;7.456;2024-03-02T22:00:00;6.8;;;4.1;;
37365;SDS011;23239;51.504;7.456;2024-03-02T22:01:00;6.8;;;4.1;;
37365;SDS011;23239;51.504;7.456;2024-03-02T22:02:00;6.8;;;4.1;;
37365;SDS011;23239;51.504;7.456;2024-03-02T22:03:00;5.7;;;4.2;;
37365;SDS011;23239;51.504;7.456;2024-03-02T22:06:00;5.7;;;4.2;;
37365;SDS011;23239;51.504;7.456;2024-03-02T22:07:00;5.7;;;4.2;;
37365;SDS011;23239;51.504;7.456;2024-03-02T22:08:00;4.3;;;3.2;;
37365;SDS011;23239;51.504;7.456;2024-03-02T22:09:00;4.3;;;3.2;;
37365;SDS011;23239;51.504;7.456;2024-03-02T22:10:00;4.3;;;3.2;;
37365;SDS011;23239;51.504;7.456;2024-03-02T22:11:00;4.3;;;3.2;;
37365;SDS011;23239;51.504;7.456;2024-03-02T22:12:00;4.3;;;3.2;;
37365;SDS011;23239;51.504;7.456;2024-03-02T22:13:00;9.3;;;4.6;;
37365;SDS011;23239;51.504;7.456;2024-03-02T22:14:00;9.3;;;4.6;;
37365;SDS011;23239;51.504;7.456;2024-03-02T22:15:00;9.3;;;4.6;;
37365;SDS011;23239;51.504;7.456;2024-03-02T22:16:00;9.3;;;4.6;;
37365;SDS011;23239;51.504;7.456;2024-03-02T22:17:00;9.3;;;4.6;;
37365;SDS011;23239;51.504;7.456;2024-03-02T22:18:00;4.7;;;3.7;;
37365;SDS011;23239;51.504;7.456;2024-03-02T22:19:00;4.7;;;3.7;;
37365;SDS011;23239;51.504;7.456;2024-03-02T22:20:00;4.7;;;3.7;;
37365;SDS011;23239;51.504;7.456;2024-03-02T22:21:00;4.7;;;3.7;;
37365;SDS011;23239;51.504;7.456;2024-03-02T22:22:00;4.7;;;3.7;;
37365;SDS011;23239;51.504;7.456;2024-03-02T22:23:00;4.7;;;3.4;;
37365;SDS011;23239;51.504;7.456;2024-03-02T22:24:00;4.7;;;3.4;;
37365;SDS011;23239;51.504;7.456;2024-03-02T22:25:00;4.7;;;3.4;;
37365;SDS011;23239;51.504;7.456;2024-03-02T22:26:00;4.7;;;3.4;;
37365;SDS011;23239;51.504;7.456;2024-03-02T22:27:00;4.7;;;3.4;;
37365;SDS011;23239;51.504;7.456;2024-03-02T22:28:00;5.1;;;3.6;;
37365;SDS011;23239;51.504;7.456;2024-03-02T22:29:00;5.1;;;3.6;;
37365;SDS011;23239;51.504;7.456;2024-03-02T22:40:00;5.5;;;3.9;;
37365;SDS011;23239;51.504;7.456;2024-03-02T22:41:00;5.5;;;3.9;;
37365;SDS011;23239;51.504;7.456;2024-03-02T22:42:00;5.5;;;3.9;;
37365;SDS011;23239;51.504;7.456;2024-03-02T22:43:00;5.7;;;4.1;;
37365;SDS011;23239;51.504;7.456;2024-03-02T22:44:00;5.7;;;4.1;;
37365;SDS011;23239;51.504;7.456;2024-03-02T22:45:00;5.7;;;4.1;;
37365;SDS011;23239;51.504;7.456;2024-03-02T22:46:00;5.7;;;4.1;;
37365;SDS011;23239;51.504;7.456;2024-03-02T22:47:00;5.7;;;4.1;;
37365;SDS011;23239;51.504;7.456;2024-03-02T22:48:00;5.5;;;3.7;;
37365;SDS011;23239;51.504;7.456;2024-03-02T22:49:00;5.5;;;3.7;;
37365;SDS011;23239;51.504;7.456;2024-03-02T22:50:00;5.5;;;3.7;;
37365;SDS011;23239;51.504;7.456;2024-03-02T22:51:00;5.5;;;3.7;;
37365;SDS011;23239;51.504;7.456;2024-03-02T22:52:00;5.5;;;3.7;;
37365;SDS011;23239;51.504;7.456;2024-03-02T22:53:00;5.2;;;3.6;;
37365;SDS011;23239;51.504;7.456;2024-03-02T22:54:00;5.2;;;3.6;;
37365;SDS011;23239;51.504;7.456;2024-03-02T22:55:00;5.2;;;3.6;;
37365;SDS011;23239;51.504;7.456;2024-03-02T22:56:00;5.2;;;3.6;;
37365;SDS011;23239;51.504;7.456;2024-03-02T22:57:00;5.2;;;3.6;;
37365;SDS011;23239;51.504;7.456;2024-03-02T22:58:00;5.7;;;3.9;;
37365;SDS011;23239;51.504;7.456;2024-03-02T22:59:00;5.7;;;3.9;;
37365;SDS011;23239;51.504;7.456;2024-03-02T23:00:00;5.7;;;3.9;;
37365;SDS011;23239;51.504;7.456;2024-03-02T23:01:00;5.7;;;3.9;;
37365;SDS011;23239;51.504;7.456;2024-03-02T23:02:00;5.7;;;3.9;;
37365;SDS011;23239;51.504;7.456;2024-03-02T23:03:00;5.5;;;3.4;;
37365;SDS011;23239;51.504;7.456;2024-03-02T23:04:00;5.5;;;3.4;;
37365;SDS011;23239;51.504;7.456;2024-03-02T23:05:00;5.5;;;3.4;;
37365;SDS011;23239;51.504;7.456;2024-03-02T23:06:00;5.5;;;3.4;;
37365;SDS011;23239;51.504;7.456;2024-03-02T23:07:00;5.5;;;3.4;;
37365;SDS011;23239;51.504;7.456;2024-03-02T23:08:00;5.8;;;3.8;;
37365;SDS011;23239;51.504;7.456;2024-03-02T23:09:00;5.8;;;3.8;;
37365;SDS011;23239;51.504;7.456;2024-03-02T23:10:00;5.8;;;3.8;;
37365;SDS011;23239;51.504;7.456;2024-03-02T23:11:00;5.8;;;3.8;;
37365;SDS011;23239;51.504;7.456;2024-03-02T23:12:00;5.8;;;3.8;;
37365;SDS011;23239;51.504;7.456;2024-03-02T23:13:00;6.1;;;3.9;;
37365;SDS011;23239;51.504;7.456;2024-03-02T23:14:00;6.1;;;3.9;;
37365;SDS011;23239;51.504;7.456;2024-03-02T23:15:00;6.1;;;3.9;;
37365;SDS011;23239;51.504;7.456;2024-03-02T23:16:00;6.1;;;3.9;;
37365;SDS011;23239;51.504;7.456;2024-03-02T23:17:00;6.1;;;3.9;;
37365;SDS011;23239;51.504;7.456;2024-03-02T23:18:00;5.6;;;3.6;;
37365;SDS011;23239;51.504;7.456;2024-03-02T23:19:00;5.6;;;3.6;;
37365;SDS011;23239;51.504;7.456;2024-03-02T23:20:00;5.6;;;3.6;;
37365;SDS011;23239;51.504;7.456;2024-03-02T23:21:00;5.6;;;3.6;;
37365;SDS011;23239;51.504;7.456;2024-03-02T23:22:00;5.6;;;3.6;;
37365;SDS011;23239;51.504;7.456;2024-03-02T23:23:00;5.7;;;3.8;;
37365;SDS011;23239;51.504;7.456;2024-03-02T23:24:00;5.7;;;3.8;;
37365;SDS011;23239;51.504;7.456;2024-03-02T23:25:00;5.7;;;3.8;;
37365;SDS011;23239;51.504;7.456;2024-03-02T23:26:00;5.7;;;3.8;;
37365;SDS011;23239;51.504;7.456;2024-03-02T23:27:00;5.7;;;3.8;;
37365;SDS011;23239;51.504;7.456;2024-03-02T23:28:00;5.8;;;3.6;;
37365;SDS011;23239;51.504;7.456;2024-03-02T23:29:00;5.8;;;3.6;;
37365;SDS011;23239;51.504;7.456;2024-03-02T23:30:00;5.8;;;3.6;;
37365;SDS011;23239;51.504;7.456;2024-03-02T23:31:00;5.8;;;3.6;;
37365;SDS011;23239;51.504;7.456;2024-03-02T23:32:00;5.8;;;3.6;;
37365;SDS011;23239;51.504;7.456;2024-03-02T23:33:00;6.1;;;3.9;;
37365;SDS011;23239;51.504;7.456;2024-03-02T23:34:00;6.1;;;3.9;;
37365;SDS011;23239;51.504;7.456;2024-03-02T23:35:00;6.1;;;3.9;;
37365;SDS011;23239;51.504;7.456;2024-03-02T23:36:00;6.1;;;3.9;;
37365;SDS011;23239;51.504;7.456;2024-03-02T23:37:00;6.1;;;3.9;;
37365;SDS011;23239;51.504;7.456;2024-03-02T23:38:00;4.6;;;3.5;;
37365;SDS011;23239;51.504;7.456;2024-03-02T23:39:00;4.6;;;3.5;;
37365;SDS011;23239;51.504;7.456;2024-03-02T23:40:00;4.6;;;3.5;;
37365;SDS011;23239;51.504;7.456;2024-03-02T23:41:00;4.6;;;3.5;;
37365;SDS011;23239;51.504;7.456;2024-03-02T23:42:00;4.6;;;3.5;;
37365;SDS011;23239;51.504;7.456;2024-03-02T23:43:00;4.1;;;3.1;;
37365;SDS011;23239;51.504;7.456;2024-03-02T23:44:00;4.1;;;3.1;;
37365;SDS011;23239;51.504;7.456;2024-03-02T23:45:00;4.1;;;3.1;;
37365;SDS011;23239;51.504;7.456;2024-03-02T23:46:00;4.1;;;3.1;;
37365;SDS011;23239;51.504;7.456;2024-03-02T23:47:00;4.1;;;3.1;;
37365;SDS011;23239;51.504;7.456;2024-03-02T23:48:01;4.8;;;3.3;;
37365;SDS011;23239;51.504;7.456;2024-03-02T23:49:00;4.8;;;3.3;;
37365;SDS011;23239;51.504;7.456;2024-03-02T23:50:00;4.8;;;3.3;;
37365;SDS011;23239;51.504;7.456;2024-03-02T23:51:00;4.8;;;3.3;;
37365;SDS011;23239;51.504;7.456;2024-03-02T23:52:00;4.8;;;3.3;;
37365;SDS011;23239;51.504;7.456;2024-03-02T23:53:00;3.9;;;2.7;;
37365;SDS011;23239;51.504;7.456;2024-03-02T23:54:00;3.9;;;2.7;;
37365;SDS011;23239;51.504;7.456;2024-03-02T23:55:00;3.9;;;2.7;;
37365;SDS011;23239;51.504;7.456;2024-03-02T23:56:06;3.9;;;2.7;;
37365;SDS011;23239;51.504;7.456;2024-03-02T23:57:00;3.9;;;2.7;;
37365;SDS011;23239;51.504;7.456;2024-03-02T23:58:00;3.6;;;2.8;;
37365;SDS011;23239;51.504;7.456;2024-03-02T23:59:00;3.6;;;2.8;;
